Time;durP1;ratioP1;P1;durP2;ratioP2;P2;SDS_P1;SDS_P2;PMS_P1;PMS_P2;Temp;Humidity;BMP_temperature;BMP_pressure;BME280_temperature;BME280_humidity;BME280_pressure;Samples;Min_cycle;Max_cycle;Signal;HPM_P1;HPM_P2
2021/04/05 00:00:14;;;;;;;390.45;245.48;;;;;;;;;;4969960;28;20030;-71
2021/04/05 00:02:40;;;;;;;377.75;233.23;;;;;;;;;;4969424;28;20022;-71
2021/04/05 00:05:07;;;;;;;385.40;247.65;;;;;;;;;;4974155;28;20034;-71
2021/04/05 00:07:33;;;;;;;378.13;242.65;;;;;;;;;;4972587;28;20037;-71
2021/04/05 00:09:59;;;;;;;381.33;238.93;;;;;;;;;;4969588;28;20040;-72
2021/04/05 00:12:25;;;;;;;381.27;237.60;;;;;;;;;;5004419;28;20093;-71
2021/04/05 00:14:51;;;;;;;383.27;247.02;;;;;;;;;;4989115;28;20484;-71
2021/04/05 00:17:17;;;;;;;379.05;237.85;;;;;;;;;;4977165;28;20042;-71
2021/04/05 00:19:45;;;;;;;387.48;243.43;;;;;;;;;;4984454;28;20038;-71
2021/04/05 00:22:12;;;;;;;393.55;246.35;;;;;;;;;;4973484;28;20117;-71
2021/04/05 00:24:39;;;;;;;381.75;239.98;;;;;;;;;;4991090;28;20034;-71
2021/04/05 00:27:05;;;;;;;381.95;240.13;;;;;;;;;;4990924;28;20022;-72
2021/04/05 00:29:31;;;;;;;386.75;245.57;;;;;;;;;;4991313;28;20041;-70
2021/04/05 00:31:57;;;;;;;390.80;250.05;;;;;;;;;;4972621;28;562952;-71
2021/04/05 00:34:23;;;;;;;386.65;250.73;;;;;;;;;;4973287;28;20030;-71
2021/04/05 00:36:49;;;;;;;386.15;249.10;;;;;;;;;;4974556;28;20038;-72
2021/04/05 00:39:15;;;;;;;384.98;240.98;;;;;;;;;;4975873;28;20022;-72
2021/04/05 00:41:41;;;;;;;381.42;245.85;;;;;;;;;;4969616;28;20557;-72
2021/04/05 00:44:07;;;;;;;384.02;240.65;;;;;;;;;;4963904;28;20090;-71
2021/04/05 00:46:33;;;;;;;389.45;247.25;;;;;;;;;;4975085;28;20030;-71
2021/04/05 00:48:59;;;;;;;390.23;244.75;;;;;;;;;;4984965;28;20050;-71
2021/04/05 00:51:27;;;;;;;383.42;238.48;;;;;;;;;;4987202;28;20035;-71
2021/04/05 00:53:53;;;;;;;387.92;247.63;;;;;;;;;;4985264;28;20541;-72
2021/04/05 00:56:26;;;;;;;394.42;248.13;;;;;;;;;;4973696;28;20053;-71
2021/04/05 00:58:53;;;;;;;397.27;253.63;;;;;;;;;;4974066;28;20045;-71
2021/04/05 01:01:22;;;;;;;396.00;249.07;;;;;;;;;;4962858;28;20045;-71
2021/04/05 01:03:49;;;;;;;390.15;251.07;;;;;;;;;;4969974;28;20089;-72
2021/04/05 01:06:17;;;;;;;392.27;247.20;;;;;;;;;;4969164;28;20686;-72
2021/04/05 01:08:43;;;;;;;389.98;246.23;;;;;;;;;;4972613;28;20383;-72
2021/04/05 01:11:11;;;;;;;383.27;248.35;;;;;;;;;;4970879;28;20596;-71
2021/04/05 01:13:37;;;;;;;397.95;254.88;;;;;;;;;;4989856;28;20686;-73
2021/04/05 01:16:03;;;;;;;391.63;253.57;;;;;;;;;;4991583;28;20038;-72
2021/04/05 01:18:30;;;;;;;385.10;243.70;;;;;;;;;;4976197;28;20033;-72
2021/04/05 01:20:56;;;;;;;387.80;246.55;;;;;;;;;;4967861;28;20031;-72
2021/04/05 01:23:23;;;;;;;393.45;256.85;;;;;;;;;;4973319;28;20030;-72
2021/04/05 01:25:49;;;;;;;398.10;252.45;;;;;;;;;;4989374;28;20027;-71
2021/04/05 01:28:15;;;;;;;395.88;249.98;;;;;;;;;;4974386;28;20381;-73
2021/04/05 01:30:46;;;;;;;394.98;252.00;;;;;;;;;;4972483;28;20053;-71
2021/04/05 01:33:12;;;;;;;398.55;253.98;;;;;;;;;;4979924;28;20038;-71
2021/04/05 01:35:43;;;;;;;405.20;254.48;;;;;;;;;;4970811;28;20027;-73
2021/04/05 01:38:10;;;;;;;405.63;248.55;;;;;;;;;;4991150;28;20022;-72
2021/04/05 01:40:37;;;;;;;403.60;260.98;;;;;;;;;;4970586;28;20071;-72
2021/04/05 01:43:03;;;;;;;402.17;256.63;;;;;;;;;;4969762;28;20034;-72
2021/04/05 01:45:30;;;;;;;398.15;255.40;;;;;;;;;;4970592;28;20517;-70
2021/04/05 01:47:56;;;;;;;402.30;255.85;;;;;;;;;;4970193;28;20026;-70
2021/04/05 01:50:22;;;;;;;402.23;254.95;;;;;;;;;;4993351;28;20034;-70
2021/04/05 01:52:48;;;;;;;405.00;254.70;;;;;;;;;;4990061;28;20029;-72
2021/04/05 01:55:15;;;;;;;401.05;258.17;;;;;;;;;;4989486;28;20391;-72
2021/04/05 01:57:41;;;;;;;394.77;256.48;;;;;;;;;;4972866;28;20023;-72
2021/04/05 02:00:11;;;;;;;401.08;255.07;;;;;;;;;;4983166;28;20022;-72
2021/04/05 02:02:38;;;;;;;397.65;256.38;;;;;;;;;;4965229;28;20027;-73
2021/04/05 02:05:10;;;;;;;393.45;249.57;;;;;;;;;;4989563;28;20061;-72
2021/04/05 02:07:37;;;;;;;402.60;256.23;;;;;;;;;;4970955;28;20165;-72
2021/04/05 02:10:13;;;;;;;398.80;251.02;;;;;;;;;;4972617;28;20065;-72
2021/04/05 02:12:40;;;;;;;409.20;257.27;;;;;;;;;;4967422;28;20037;-72
2021/04/05 02:15:10;;;;;;;404.20;255.85;;;;;;;;;;4979609;28;20645;-72
2021/04/05 02:17:36;;;;;;;411.77;255.52;;;;;;;;;;4990839;28;20035;-72
2021/04/05 02:20:07;;;;;;;397.45;255.90;;;;;;;;;;4988881;28;20039;-72
2021/04/05 02:22:34;;;;;;;409.27;256.38;;;;;;;;;;4972242;28;20030;-72
2021/04/05 02:25:00;;;;;;;402.67;253.93;;;;;;;;;;4987160;28;20109;-73
2021/04/05 02:27:26;;;;;;;401.88;251.32;;;;;;;;;;4992268;28;20638;-73
2021/04/05 02:29:52;;;;;;;405.42;256.58;;;;;;;;;;4963990;28;20564;-72
2021/04/05 02:32:18;;;;;;;395.55;249.75;;;;;;;;;;4970677;28;20065;-73
2021/04/05 02:34:45;;;;;;;398.27;252.25;;;;;;;;;;4969143;28;20075;-72
2021/04/05 02:37:13;;;;;;;397.73;257.88;;;;;;;;;;4969948;28;20030;-72
2021/04/05 02:39:39;;;;;;;393.50;251.57;;;;;;;;;;4964497;28;20022;-70
2021/04/05 02:42:05;;;;;;;391.88;255.05;;;;;;;;;;4975215;28;20509;-70
2021/04/05 02:44:31;;;;;;;397.48;258.45;;;;;;;;;;4972491;28;20038;-70
2021/04/05 02:46:57;;;;;;;396.25;260.05;;;;;;;;;;4972122;28;20053;-70
2021/04/05 02:49:24;;;;;;;396.40;253.50;;;;;;;;;;4991171;28;20105;-71
2021/04/05 02:51:50;;;;;;;402.10;262.27;;;;;;;;;;4985195;28;20404;-71
2021/04/05 02:54:23;;;;;;;389.98;260.95;;;;;;;;;;4988040;28;20030;-73
2021/04/05 02:56:49;;;;;;;387.10;253.70;;;;;;;;;;4989421;28;20033;-72
2021/04/05 02:59:23;;;;;;;397.60;259.52;;;;;;;;;;4970172;28;20038;-73
2021/04/05 03:01:49;;;;;;;395.98;257.13;;;;;;;;;;4986126;28;20064;-72
2021/04/05 03:04:16;;;;;;;393.08;251.32;;;;;;;;;;4988042;28;20081;-73
2021/04/05 03:06:42;;;;;;;388.95;257.45;;;;;;;;;;4991139;28;20620;-72
2021/04/05 03:09:08;;;;;;;385.45;252.50;;;;;;;;;;4971226;28;20493;-72
2021/04/05 03:11:36;;;;;;;385.85;258.67;;;;;;;;;;4969337;28;20042;-73
2021/04/05 03:14:04;;;;;;;389.08;258.10;;;;;;;;;;4971801;28;20026;-73
2021/04/05 03:16:31;;;;;;;389.17;255.40;;;;;;;;;;4968224;28;20034;-72
2021/04/05 03:18:58;;;;;;;381.80;254.52;;;;;;;;;;4981074;28;20592;-72
2021/04/05 03:21:24;;;;;;;392.98;257.02;;;;;;;;;;4989691;28;20038;-72
2021/04/05 03:23:50;;;;;;;398.52;263.67;;;;;;;;;;4991163;28;20022;-70
2021/04/05 03:26:16;;;;;;;383.15;261.15;;;;;;;;;;4966673;28;20367;-73
2021/04/05 03:28:42;;;;;;;383.73;253.13;;;;;;;;;;4972450;28;20027;-72
2021/04/05 03:31:11;;;;;;;387.85;258.92;;;;;;;;;;4971635;28;20046;-73
2021/04/05 03:33:56;;;;;;;388.90;262.02;;;;;;;;;;4971532;28;20027;-70
2021/04/05 03:36:25;;;;;;;385.23;254.45;;;;;;;;;;4969899;28;20041;-71
2021/04/05 03:38:51;;;;;;;386.25;259.27;;;;;;;;;;4972914;28;20063;-70
2021/04/05 03:41:41;;;;;;;380.98;259.23;;;;;;;;;;4967675;28;20030;-71
2021/04/05 03:44:24;;;;;;;391.92;254.80;;;;;;;;;;4974412;28;20078;-71
2021/04/05 03:46:51;;;;;;;384.67;257.35;;;;;;;;;;4968937;28;20026;-72
2021/04/05 03:49:32;;;;;;;384.10;258.92;;;;;;;;;;4972920;28;20039;-71
2021/04/05 03:52:08;;;;;;;388.20;256.65;;;;;;;;;;4956385;28;20031;-73
2021/04/05 03:54:39;;;;;;;381.55;252.20;;;;;;;;;;4980443;28;20072;-73
2021/04/05 03:57:06;;;;;;;383.65;261.60;;;;;;;;;;4987130;28;20547;-72
2021/04/05 03:59:42;;;;;;;386.15;258.23;;;;;;;;;;4966874;28;20030;-75
2021/04/05 04:02:14;;;;;;;385.02;254.60;;;;;;;;;;4976037;28;20050;-72
2021/04/05 04:04:49;;;;;;;391.55;259.00;;;;;;;;;;4969404;28;20085;-72
2021/04/05 04:07:23;;;;;;;384.67;253.23;;;;;;;;;;4979080;28;20018;-73
2021/04/05 04:09:52;;;;;;;383.50;256.23;;;;;;;;;;4989904;28;20025;-74
2021/04/05 04:12:18;;;;;;;386.75;251.93;;;;;;;;;;4986688;28;20026;-73
2021/04/05 04:14:45;;;;;;;385.85;251.63;;;;;;;;;;4985855;28;20030;-72
2021/04/05 04:17:11;;;;;;;384.58;252.73;;;;;;;;;;4982519;28;20111;-72
2021/04/05 04:19:38;;;;;;;387.52;255.85;;;;;;;;;;4988299;28;20583;-72
2021/04/05 04:22:05;;;;;;;385.55;255.50;;;;;;;;;;4987703;28;20018;-72
2021/04/05 04:24:32;;;;;;;392.95;258.83;;;;;;;;;;4991394;28;20757;-73
2021/04/05 04:26:58;;;;;;;390.63;261.48;;;;;;;;;;4987022;28;20829;-73
2021/04/05 04:29:25;;;;;;;387.38;260.73;;;;;;;;;;4985928;28;20034;-72
2021/04/05 04:31:50;;;;;;;379.85;253.95;;;;;;;;;;4965277;28;20141;-73
2021/04/05 04:34:21;;;;;;;385.38;253.07;;;;;;;;;;4987626;28;20105;-72
2021/04/05 04:36:47;;;;;;;;;;;;;;;;;;4969285;28;20146;-73
2021/04/05 04:39:13;;;;;;;381.55;240.10;;;;;;;;;;4972275;28;19934;-73
2021/04/05 04:41:42;;;;;;;383.13;255.45;;;;;;;;;;4968042;28;20031;-73
2021/04/05 04:44:09;;;;;;;385.98;251.88;;;;;;;;;;4970259;28;20031;-73
2021/04/05 04:46:35;;;;;;;391.27;258.70;;;;;;;;;;4988571;28;20482;-73
2021/04/05 04:49:03;;;;;;;385.98;256.45;;;;;;;;;;4972415;28;20026;-72
2021/04/05 04:51:29;;;;;;;389.52;253.68;;;;;;;;;;4971220;28;20086;-72
2021/04/05 04:53:56;;;;;;;391.25;260.60;;;;;;;;;;4969001;28;20121;-72
2021/04/05 04:56:22;;;;;;;388.38;256.35;;;;;;;;;;4970932;28;20033;-72
2021/04/05 04:58:48;;;;;;;384.30;257.50;;;;;;;;;;4973557;28;20132;-72
2021/04/05 05:01:15;;;;;;;383.60;260.58;;;;;;;;;;4974435;28;20038;-72
2021/04/05 05:03:43;;;;;;;386.63;261.88;;;;;;;;;;4973945;28;20088;-73
2021/04/05 05:06:09;;;;;;;389.70;258.33;;;;;;;;;;4976991;28;20031;-75
2021/04/05 05:08:36;;;;;;;375.95;247.60;;;;;;;;;;4991563;28;20049;-76
2021/04/05 05:11:02;;;;;;;370.45;248.88;;;;;;;;;;4970252;28;20027;-75
2021/04/05 05:13:28;;;;;;;373.50;244.27;;;;;;;;;;4973874;28;20169;-74
2021/04/05 05:15:54;;;;;;;378.27;254.70;;;;;;;;;;4969614;28;20094;-76
2021/04/05 05:18:20;;;;;;;369.08;241.95;;;;;;;;;;4971911;28;20781;-76
2021/04/05 05:20:46;;;;;;;370.65;245.45;;;;;;;;;;4985477;28;20134;-77
2021/04/05 05:23:12;;;;;;;370.23;244.68;;;;;;;;;;4975322;28;20057;-76
2021/04/05 05:25:40;;;;;;;362.73;235.63;;;;;;;;;;4987687;28;20030;-76
2021/04/05 05:28:09;;;;;;;366.17;239.75;;;;;;;;;;4973443;28;20031;-75
2021/04/05 05:30:36;;;;;;;366.40;238.38;;;;;;;;;;4974534;28;20038;-75
2021/04/05 05:33:04;;;;;;;368.60;236.23;;;;;;;;;;4974425;28;20029;-76
2021/04/05 05:35:32;;;;;;;367.13;235.02;;;;;;;;;;4989498;28;20023;-78
2021/04/05 05:38:02;;;;;;;365.13;233.27;;;;;;;;;;4975367;28;20060;-77
2021/04/05 05:40:28;;;;;;;366.65;235.90;;;;;;;;;;4974882;28;20026;-75
2021/04/05 05:43:13;;;;;;;375.70;241.35;;;;;;;;;;4989823;28;20101;-78
2021/04/05 05:45:43;;;;;;;389.00;238.35;;;;;;;;;;4993621;28;20045;-76
2021/04/05 05:48:27;;;;;;;382.67;235.70;;;;;;;;;;4993188;28;20105;-76
2021/04/05 05:51:05;;;;;;;373.70;233.45;;;;;;;;;;4990005;28;20034;-79
2021/04/05 05:53:42;;;;;;;369.25;233.57;;;;;;;;;;4976354;28;20030;-76
2021/04/05 05:56:08;;;;;;;371.27;231.82;;;;;;;;;;4975287;28;20041;-77
2021/04/05 05:58:38;;;;;;;369.25;233.52;;;;;;;;;;4974573;28;20026;-76
2021/04/05 06:01:14;;;;;;;370.80;231.20;;;;;;;;;;4974483;28;20041;-77
2021/04/05 06:03:51;;;;;;;368.02;232.35;;;;;;;;;;4963327;28;20037;-78
2021/04/05 06:06:18;;;;;;;366.13;231.55;;;;;;;;;;4993863;28;20073;-79
2021/04/05 06:08:55;;;;;;;366.40;233.02;;;;;;;;;;4980303;28;20062;-78
2021/04/05 06:11:35;;;;;;;369.30;231.77;;;;;;;;;;4966835;28;20030;-78
2021/04/05 06:14:09;;;;;;;363.52;231.18;;;;;;;;;;4968207;28;20591;-77
2021/04/05 06:17:07;;;;;;;363.65;225.60;;;;;;;;;;4969007;28;20073;-82
2021/04/05 06:19:35;;;;;;;367.85;233.63;;;;;;;;;;4934118;28;20129;-77
2021/04/05 06:22:20;;;;;;;370.63;234.85;;;;;;;;;;4967681;28;20771;-78
2021/04/05 06:25:05;;;;;;;365.92;234.23;;;;;;;;;;4969839;28;20046;-78
2021/04/05 06:27:31;;;;;;;367.55;233.43;;;;;;;;;;4991172;28;20035;-80
2021/04/05 06:30:29;;;;;;;375.77;238.07;;;;;;;;;;4969477;28;20037;-78
2021/04/05 06:33:06;;;;;;;365.13;230.00;;;;;;;;;;4936177;28;20042;-77
2021/04/05 06:35:44;;;;;;;365.58;229.30;;;;;;;;;;4992238;28;20030;-76
2021/04/05 06:38:15;;;;;;;372.48;237.50;;;;;;;;;;4985007;28;20025;-76
2021/04/05 06:40:41;;;;;;;365.02;226.82;;;;;;;;;;4968484;28;20473;-75
2021/04/05 06:43:13;;;;;;;367.52;228.55;;;;;;;;;;4974132;28;20028;-74
2021/04/05 06:45:57;;;;;;;374.58;233.70;;;;;;;;;;4988009;28;20038;-74
2021/04/05 06:48:42;;;;;;;380.63;235.45;;;;;;;;;;4981893;28;20077;-76
2021/04/05 06:51:26;;;;;;;382.20;233.07;;;;;;;;;;4982282;28;20030;-75
2021/04/05 06:53:53;;;;;;;387.80;233.52;;;;;;;;;;4967009;28;20031;-75
2021/04/05 06:56:19;;;;;;;448.00;248.68;;;;;;;;;;4986359;28;20556;-76
2021/04/05 06:58:56;;;;;;;569.90;277.38;;;;;;;;;;4966386;28;20027;-74
2021/04/05 07:01:34;;;;;;;545.88;270.95;;;;;;;;;;4981670;28;20038;-74
2021/04/05 07:04:22;;;;;;;544.95;270.58;;;;;;;;;;4986886;28;20034;-75
2021/04/05 07:07:08;;;;;;;550.08;259.40;;;;;;;;;;4971250;28;20038;-73
2021/04/05 07:09:42;;;;;;;546.70;268.30;;;;;;;;;;4969713;28;20026;-73
2021/04/05 07:12:28;;;;;;;366.05;222.25;;;;;;;;;;4984120;28;20041;-73
2021/04/05 07:15:23;;;;;;;362.10;216.68;;;;;;;;;;4977683;28;20036;-74
2021/04/05 07:18:08;;;;;;;552.60;258.67;;;;;;;;;;4947665;28;20070;-73
2021/04/05 07:20:42;;;;;;;370.20;225.00;;;;;;;;;;4990053;28;20069;-73
2021/04/05 07:23:22;;;;;;;377.92;226.07;;;;;;;;;;4970190;28;20037;-74
2021/04/05 07:26:01;;;;;;;527.30;260.17;;;;;;;;;;4990585;28;20470;-73
2021/04/05 07:28:34;;;;;;;388.63;224.35;;;;;;;;;;4963288;28;20042;-74
2021/04/05 07:31:24;;;;;;;538.10;260.08;;;;;;;;;;4970534;28;20072;-73
2021/04/05 07:34:01;;;;;;;369.30;222.07;;;;;;;;;;4984903;28;20038;-74
2021/04/05 07:36:47;;;;;;;554.60;267.13;;;;;;;;;;4965284;28;20031;-73
2021/04/05 07:39:27;;;;;;;373.63;221.52;;;;;;;;;;4962080;28;20026;-74
2021/04/05 07:41:59;;;;;;;365.75;222.13;;;;;;;;;;4970360;28;20038;-73
2021/04/05 07:44:38;;;;;;;365.60;225.45;;;;;;;;;;4968639;28;20035;-75
2021/04/05 07:47:06;;;;;;;375.25;221.73;;;;;;;;;;4990061;28;20030;-78
2021/04/05 07:49:36;;;;;;;371.52;229.35;;;;;;;;;;4973108;28;20023;-77
2021/04/05 07:52:25;;;;;;;364.58;223.02;;;;;;;;;;4975875;28;20026;-76
2021/04/05 07:54:51;;;;;;;370.75;226.63;;;;;;;;;;4988846;28;21059;-75
2021/04/05 07:57:28;;;;;;;374.77;221.55;;;;;;;;;;4973831;28;20022;-74
2021/04/05 08:00:10;;;;;;;369.05;229.85;;;;;;;;;;4973851;28;20622;-74
2021/04/05 08:02:36;;;;;;;368.40;225.35;;;;;;;;;;4979383;28;20145;-77
2021/04/05 08:05:14;;;;;;;365.08;228.27;;;;;;;;;;4989832;28;20036;-76
2021/04/05 08:07:46;;;;;;;369.52;225.20;;;;;;;;;;4979832;28;20049;-74
2021/04/05 08:10:18;;;;;;;370.27;226.50;;;;;;;;;;4991627;28;20105;-75
2021/04/05 08:12:54;;;;;;;361.67;223.50;;;;;;;;;;4971680;28;20153;-75
2021/04/05 08:15:38;;;;;;;361.15;221.52;;;;;;;;;;4984240;28;20094;-75
2021/04/05 08:18:23;;;;;;;353.75;212.80;;;;;;;;;;4971764;28;20178;-74
2021/04/05 08:20:55;;;;;;;359.95;221.30;;;;;;;;;;4987820;28;20035;-75
2021/04/05 08:23:56;;;;;;;355.73;219.95;;;;;;;;;;4991870;28;20026;-77
2021/04/05 08:26:36;;;;;;;355.70;216.82;;;;;;;;;;4969146;28;20583;-76
2021/04/05 08:29:02;;;;;;;355.90;215.50;;;;;;;;;;4975208;28;20573;-76
2021/04/05 08:31:36;;;;;;;358.83;222.73;;;;;;;;;;4969573;28;20045;-78
2021/04/05 08:34:08;;;;;;;363.83;228.30;;;;;;;;;;4983086;28;20093;-76
2021/04/05 08:36:46;;;;;;;362.02;224.43;;;;;;;;;;4973211;28;20058;-76
2021/04/05 08:39:34;;;;;;;362.05;225.80;;;;;;;;;;4995832;28;20105;-79
2021/04/05 08:42:19;;;;;;;367.17;231.23;;;;;;;;;;4994135;28;20426;-77
2021/04/05 08:44:52;;;;;;;363.65;224.35;;;;;;;;;;4973978;28;20125;-79
2021/04/05 08:47:28;;;;;;;386.27;231.63;;;;;;;;;;4990394;28;20034;-77
2021/04/05 08:49:56;;;;;;;378.23;229.77;;;;;;;;;;4987848;28;20507;-78
2021/04/05 08:52:24;;;;;;;399.35;230.00;;;;;;;;;;4966664;28;20260;-75
2021/04/05 08:54:50;;;;;;;460.42;241.15;;;;;;;;;;4989868;28;20034;-76
2021/04/05 08:57:21;;;;;;;355.58;226.10;;;;;;;;;;4973567;28;20030;-75
2021/04/05 08:59:54;;;;;;;349.15;213.07;;;;;;;;;;4970284;28;20712;-73
2021/04/05 09:02:40;;;;;;;348.80;211.75;;;;;;;;;;4976601;28;20178;-75
2021/04/05 09:05:25;;;;;;;354.83;213.95;;;;;;;;;;4982973;28;21973;-75
2021/04/05 09:07:55;;;;;;;366.67;224.88;;;;;;;;;;4970909;28;20030;-76
2021/04/05 09:10:25;;;;;;;501.50;239.95;;;;;;;;;;4967481;28;20027;-76
2021/04/05 09:12:52;;;;;;;539.28;243.75;;;;;;;;;;4988073;28;20093;-73
2021/04/05 09:15:24;;;;;;;356.05;218.52;;;;;;;;;;4995068;28;20084;-75
2021/04/05 09:18:01;;;;;;;543.25;259.30;;;;;;;;;;4990583;28;20030;-73
2021/04/05 09:20:30;;;;;;;349.77;215.02;;;;;;;;;;4963254;28;20037;-75
2021/04/05 09:23:14;;;;;;;546.03;255.27;;;;;;;;;;4971019;28;20042;-73
2021/04/05 09:25:48;;;;;;;350.20;203.70;;;;;;;;;;4980605;28;20368;-75
2021/04/05 09:28:40;;;;;;;352.85;211.60;;;;;;;;;;4977177;28;20029;-76
2021/04/05 09:31:25;;;;;;;348.27;210.98;;;;;;;;;;4976098;28;20038;-76
2021/04/05 09:34:02;;;;;;;352.25;212.32;;;;;;;;;;4972879;28;20063;-75
2021/04/05 09:36:38;;;;;;;353.42;215.50;;;;;;;;;;4980641;28;20054;-82
2021/04/05 09:39:23;;;;;;;356.50;220.13;;;;;;;;;;4970293;28;20406;-81
2021/04/05 09:42:00;;;;;;;346.73;212.00;;;;;;;;;;4962736;28;20038;-75
2021/04/05 09:44:29;;;;;;;350.25;209.60;;;;;;;;;;4964292;28;20093;-77
2021/04/05 09:46:55;;;;;;;354.50;216.55;;;;;;;;;;4962946;28;20347;-80
2021/04/05 09:49:28;;;;;;;350.33;216.35;;;;;;;;;;4991198;28;20037;-76
2021/04/05 09:52:00;;;;;;;364.30;224.05;;;;;;;;;;4990058;28;20062;-75
2021/04/05 09:54:34;;;;;;;348.63;220.00;;;;;;;;;;4971039;28;20057;-76
2021/04/05 09:57:02;;;;;;;356.20;225.88;;;;;;;;;;4973999;28;20027;-78
2021/04/05 09:59:47;;;;;;;348.95;219.65;;;;;;;;;;4989168;28;20056;-75
2021/04/05 10:02:14;;;;;;;350.63;217.30;;;;;;;;;;4979103;28;20498;-77
2021/04/05 10:04:45;;;;;;;351.08;218.35;;;;;;;;;;4971224;28;20031;-75
2021/04/05 10:07:12;;;;;;;356.10;221.70;;;;;;;;;;4972611;28;20030;-77
2021/04/05 10:09:38;;;;;;;352.92;222.20;;;;;;;;;;4998998;28;20026;-76
2021/04/05 10:12:05;;;;;;;367.30;231.10;;;;;;;;;;4968827;28;20019;-79
2021/04/05 10:14:32;;;;;;;364.10;239.80;;;;;;;;;;4993040;28;20037;-76
2021/04/05 10:16:59;;;;;;;370.52;248.68;;;;;;;;;;4973788;28;20031;-74
2021/04/05 10:19:30;;;;;;;375.15;260.10;;;;;;;;;;4973686;28;20026;-74
2021/04/05 10:22:01;;;;;;;380.60;270.83;;;;;;;;;;4977317;28;20034;-76
2021/04/05 10:24:28;;;;;;;380.77;280.05;;;;;;;;;;4972508;28;20041;-78
2021/04/05 10:26:56;;;;;;;391.27;295.98;;;;;;;;;;4987443;28;20058;-75
2021/04/05 10:29:30;;;;;;;393.40;312.40;;;;;;;;;;4987629;28;20058;-77
2021/04/05 10:31:58;;;;;;;401.80;327.50;;;;;;;;;;4959483;28;20053;-80
2021/04/05 10:34:37;;;;;;;398.80;336.25;;;;;;;;;;4974317;28;20037;-73
2021/04/05 10:37:11;;;;;;;396.42;337.38;;;;;;;;;;4985897;28;20069;-77
2021/04/05 10:39:47;;;;;;;386.77;319.33;;;;;;;;;;4970827;28;20387;-79
2021/04/05 10:42:19;;;;;;;384.02;305.50;;;;;;;;;;4966308;28;20027;-81
2021/04/05 10:44:47;;;;;;;381.02;288.50;;;;;;;;;;4988480;28;20026;-79
2021/04/05 10:47:22;;;;;;;379.30;277.98;;;;;;;;;;4979829;28;20027;-77
2021/04/05 10:49:49;;;;;;;368.77;257.67;;;;;;;;;;4969816;28;20077;-78
2021/04/05 10:52:21;;;;;;;364.65;245.68;;;;;;;;;;4972600;28;20100;-77
2021/04/05 10:54:49;;;;;;;360.50;235.00;;;;;;;;;;4983484;28;20134;-78
2021/04/05 10:57:35;;;;;;;365.33;236.60;;;;;;;;;;4966409;28;20022;-80
2021/04/05 11:00:04;;;;;;;362.50;229.68;;;;;;;;;;4969503;28;20022;-79
2021/04/05 11:08:38;;;;;;;371.50;244.98;;;;;;;;;;4981807;28;20121;-75
2021/04/05 11:11:15;;;;;;;377.10;257.25;;;;;;;;;;4979884;28;20018;-80
2021/04/05 11:13:43;;;;;;;389.58;276.75;;;;;;;;;;4970646;28;20097;-75
2021/04/05 11:16:10;;;;;;;385.88;288.25;;;;;;;;;;4991476;28;20026;-77
2021/04/05 11:18:38;;;;;;;396.77;304.02;;;;;;;;;;4987418;28;20482;-77
2021/04/05 11:21:05;;;;;;;392.92;310.58;;;;;;;;;;4992230;28;20065;-75
2021/04/05 11:23:34;;;;;;;392.27;316.95;;;;;;;;;;4973470;28;20045;-75
2021/04/05 11:26:03;;;;;;;396.52;323.10;;;;;;;;;;4970564;28;20538;-78
2021/04/05 11:28:30;;;;;;;394.20;317.90;;;;;;;;;;4957126;28;20023;-79
2021/04/05 11:31:01;;;;;;;396.55;316.63;;;;;;;;;;4970568;28;20030;-76
2021/04/05 11:33:28;;;;;;;396.50;316.30;;;;;;;;;;4992639;28;20069;-78
2021/04/05 11:35:55;;;;;;;392.17;311.00;;;;;;;;;;4988389;28;20031;-75
2021/04/05 11:38:22;;;;;;;383.73;300.55;;;;;;;;;;4972492;28;20069;-76
2021/04/05 11:41:10;;;;;;;384.40;292.50;;;;;;;;;;4971311;28;20491;-77
2021/04/05 11:43:39;;;;;;;379.40;273.60;;;;;;;;;;4970808;28;20022;-76
2021/04/05 11:46:07;;;;;;;384.30;277.25;;;;;;;;;;4972033;28;20026;-78
2021/04/05 11:48:33;;;;;;;378.30;272.20;;;;;;;;;;4962130;28;20525;-74
2021/04/05 11:51:00;;;;;;;382.08;273.80;;;;;;;;;;4961952;28;20494;-74
2021/04/05 11:53:34;;;;;;;378.80;273.58;;;;;;;;;;4984383;28;20027;-72
2021/04/05 11:56:15;;;;;;;382.92;270.08;;;;;;;;;;4972208;28;20132;-74
2021/04/05 11:59:05;;;;;;;385.83;278.05;;;;;;;;;;4977514;28;20030;-75
2021/04/05 12:01:43;;;;;;;383.83;279.25;;;;;;;;;;4976345;28;20121;-75
2021/04/05 12:04:14;;;;;;;385.27;283.33;;;;;;;;;;4987366;28;20113;-74
2021/04/05 12:06:54;;;;;;;387.40;287.98;;;;;;;;;;4985600;28;20089;-72
2021/04/05 12:09:29;;;;;;;385.98;282.67;;;;;;;;;;4985083;28;20023;-72
2021/04/05 12:12:05;;;;;;;392.30;291.45;;;;;;;;;;4993096;28;20026;-77
2021/04/05 12:14:32;;;;;;;388.55;291.40;;;;;;;;;;4974824;28;20030;-74
2021/04/05 12:16:59;;;;;;;384.48;294.08;;;;;;;;;;4975810;28;20187;-73
2021/04/05 12:19:28;;;;;;;392.15;300.40;;;;;;;;;;4991760;28;20094;-75
2021/04/05 12:21:54;;;;;;;398.50;310.77;;;;;;;;;;4990101;28;20035;-74
2021/04/05 12:24:26;;;;;;;388.95;304.42;;;;;;;;;;4998148;28;20460;-74
2021/04/05 12:26:55;;;;;;;387.75;301.55;;;;;;;;;;4979292;28;20068;-74
2021/04/05 12:29:23;;;;;;;387.52;298.30;;;;;;;;;;4973487;28;20121;-74
2021/04/05 12:31:52;;;;;;;391.52;296.80;;;;;;;;;;4967336;28;20738;-73
2021/04/05 12:34:38;;;;;;;384.25;288.10;;;;;;;;;;4973224;28;20023;-74
2021/04/05 12:37:16;;;;;;;387.77;283.52;;;;;;;;;;4991405;28;20026;-75
2021/04/05 12:39:43;;;;;;;383.00;283.80;;;;;;;;;;4976363;28;20027;-75
2021/04/05 12:42:10;;;;;;;388.45;284.08;;;;;;;;;;4974179;28;20030;-72
2021/04/05 12:44:38;;;;;;;387.88;280.85;;;;;;;;;;4977281;28;20022;-75
2021/04/05 12:47:07;;;;;;;381.58;275.10;;;;;;;;;;4975914;28;20037;-72
2021/04/05 12:49:38;;;;;;;378.33;269.80;;;;;;;;;;4976641;28;20050;-76
2021/04/05 12:52:09;;;;;;;383.05;267.40;;;;;;;;;;4987037;28;20073;-72
2021/04/05 12:54:37;;;;;;;379.45;262.80;;;;;;;;;;4975068;28;20073;-74
2021/04/05 12:57:04;;;;;;;378.70;262.33;;;;;;;;;;4974272;28;20113;-72
2021/04/05 12:59:30;;;;;;;378.00;266.08;;;;;;;;;;4994701;28;20038;-73
2021/04/05 13:02:12;;;;;;;380.73;266.20;;;;;;;;;;4976001;28;20030;-76
2021/04/05 13:04:43;;;;;;;377.27;262.98;;;;;;;;;;4964368;28;20026;-75
2021/04/05 13:07:20;;;;;;;375.50;261.65;;;;;;;;;;4971883;28;20117;-76
2021/04/05 13:09:54;;;;;;;377.40;263.90;;;;;;;;;;4973484;28;20085;-71
2021/04/05 13:12:24;;;;;;;376.00;259.20;;;;;;;;;;4977413;28;20022;-74
2021/04/05 13:15:01;;;;;;;373.13;256.50;;;;;;;;;;4967679;28;20042;-72
2021/04/05 13:17:29;;;;;;;371.38;250.70;;;;;;;;;;4989940;28;20031;-73
2021/04/05 13:20:02;;;;;;;380.92;260.92;;;;;;;;;;4988390;28;20030;-74
2021/04/05 13:22:30;;;;;;;373.35;246.95;;;;;;;;;;4970421;28;20037;-72
2021/04/05 13:25:04;;;;;;;372.23;247.70;;;;;;;;;;4971074;28;20066;-75
2021/04/05 13:27:30;;;;;;;365.83;241.82;;;;;;;;;;4975518;28;20023;-76
2021/04/05 13:29:57;;;;;;;374.08;250.63;;;;;;;;;;4987901;28;20030;-71
2021/04/05 13:32:28;;;;;;;364.92;242.55;;;;;;;;;;4979224;28;20718;-76
2021/04/05 13:35:02;;;;;;;367.33;247.18;;;;;;;;;;4975275;28;20026;-77
2021/04/05 13:37:28;;;;;;;369.95;246.90;;;;;;;;;;4992024;28;20061;-74
2021/04/05 13:39:55;;;;;;;381.13;253.05;;;;;;;;;;4991814;28;20026;-71
2021/04/05 13:42:23;;;;;;;371.65;240.40;;;;;;;;;;4971934;28;20034;-75
2021/04/05 13:44:51;;;;;;;371.60;246.13;;;;;;;;;;4972843;28;20030;-74
2021/04/05 13:47:18;;;;;;;373.50;248.15;;;;;;;;;;4962105;28;20034;-75
2021/04/05 13:49:44;;;;;;;370.13;242.13;;;;;;;;;;4986598;28;20081;-74
2021/04/05 13:52:12;;;;;;;376.02;251.23;;;;;;;;;;4987236;28;20679;-73
2021/04/05 13:54:39;;;;;;;373.05;249.05;;;;;;;;;;4967129;28;20093;-75
2021/04/05 13:57:07;;;;;;;369.65;241.95;;;;;;;;;;4970656;28;20026;-75
2021/04/05 13:59:37;;;;;;;374.45;254.40;;;;;;;;;;4995553;28;20053;-76
2021/04/05 14:02:05;;;;;;;372.58;243.63;;;;;;;;;;4969385;28;20022;-75
2021/04/05 14:04:39;;;;;;;367.63;244.73;;;;;;;;;;4989464;28;20033;-76
2021/04/05 14:07:06;;;;;;;376.33;248.93;;;;;;;;;;4971431;28;20813;-76
2021/04/05 14:09:33;;;;;;;377.15;255.23;;;;;;;;;;4996816;28;20038;-77
2021/04/05 14:12:01;;;;;;;378.10;264.58;;;;;;;;;;4993022;28;21576;-77
2021/04/05 14:14:28;;;;;;;373.58;258.70;;;;;;;;;;4974182;28;20194;-77
2021/04/05 14:16:59;;;;;;;376.60;258.70;;;;;;;;;;4974215;28;20077;-77
2021/04/05 14:19:29;;;;;;;373.10;259.30;;;;;;;;;;4969836;28;20027;-76
2021/04/05 14:22:06;;;;;;;375.92;255.75;;;;;;;;;;4966453;28;20049;-76